Time;durP1;ratioP1;P1;durP2;ratioP2;P2;SDS_P1;SDS_P2;PMS_P1;PMS_P2;Temp;Humidity;BMP_temperature;BMP_pressure;BME280_temperature;BME280_humidity;BME280_pressure;Samples;Min_cycle;Max_cycle;Signal;HPM_P1;HPM_P2
2023/09/24 00:01:04;;;;;;;3.10;2.17;;;16.20;78.10;;;;;;5035191;28;20033;-63
2023/09/24 00:03:33;;;;;;;3.90;2.65;;;16.20;78.10;;;;;;5035571;28;20030;-63
2023/09/24 00:06:08;;;;;;;4.00;2.30;;;16.20;78.30;;;;;;5035638;28;20022;-63
2023/09/24 00:08:35;;;;;;;4.75;2.60;;;16.20;78.20;;;;;;5035410;28;20406;-64
2023/09/24 00:11:02;;;;;;;4.25;2.60;;;16.20;78.20;;;;;;5035383;28;20037;-63
2023/09/24 00:13:32;;;;;;;4.50;2.63;;;16.20;78.20;;;;;;5035251;28;20091;-63
2023/09/24 00:16:06;;;;;;;4.95;3.08;;;16.20;78.30;;;;;;5034706;28;20064;-64
2023/09/24 00:18:33;;;;;;;4.75;2.80;;;16.20;78.30;;;;;;5035515;28;20076;-63
2023/09/24 00:20:59;;;;;;;4.13;2.60;;;16.20;78.70;;;;;;5034990;28;20346;-63
2023/09/24 00:23:25;;;;;;;3.83;2.58;;;16.20;78.50;;;;;;5035165;28;20025;-64
2023/09/24 00:25:52;;;;;;;4.93;2.70;;;16.20;78.60;;;;;;5035206;28;20021;-63
2023/09/24 00:28:18;;;;;;;4.15;2.80;;;16.20;78.60;;;;;;5034807;28;20057;-64
2023/09/24 00:30:44;;;;;;;3.67;2.47;;;16.20;78.60;;;;;;5034876;28;20037;-63
2023/09/24 00:33:10;;;;;;;5.25;2.70;;;16.30;78.60;;;;;;5035076;28;20076;-64
2023/09/24 00:35:36;;;;;;;4.68;2.83;;;16.30;78.60;;;;;;5034897;28;20083;-63
2023/09/24 00:38:02;;;;;;;4.57;2.67;;;16.20;78.70;;;;;;5017320;28;20048;-64
2023/09/24 00:40:28;;;;;;;4.38;2.65;;;16.20;78.70;;;;;;5034840;28;20167;-64
2023/09/24 00:42:54;;;;;;;4.78;2.80;;;16.30;78.70;;;;;;5035299;28;20025;-64
2023/09/24 00:45:25;;;;;;;3.55;2.67;;;16.30;78.60;;;;;;5034956;28;20021;-64
2023/09/24 00:47:53;;;;;;;4.65;2.60;;;16.30;78.70;;;;;;5035033;28;20095;-63
2023/09/24 00:50:21;;;;;;;4.18;2.97;;;16.30;78.70;;;;;;5034982;28;20451;-63
2023/09/24 00:52:50;;;;;;;5.10;2.80;;;16.30;78.70;;;;;;5034977;28;20025;-63
2023/09/24 00:55:17;;;;;;;5.25;3.22;;;16.30;78.70;;;;;;5038025;28;20083;-64
2023/09/24 00:57:46;;;;;;;4.57;3.15;;;16.20;78.70;;;;;;5038619;28;20040;-64
2023/09/24 01:00:18;;;;;;;6.10;3.30;;;16.20;78.80;;;;;;5038342;28;20022;-64
2023/09/24 01:02:47;;;;;;;5.43;3.58;;;16.20;78.80;;;;;;5039167;28;20030;-64
2023/09/24 01:05:14;;;;;;;5.78;3.63;;;16.30;78.90;;;;;;5038181;28;20079;-64
2023/09/24 01:07:42;;;;;;;6.85;3.78;;;16.20;78.90;;;;;;5038166;28;20116;-64
2023/09/24 01:10:11;;;;;;;7.43;4.25;;;16.30;78.90;;;;;;5038128;28;20025;-64
2023/09/24 01:12:39;;;;;;;5.43;3.50;;;16.30;79.10;;;;;;5038064;28;20037;-63
2023/09/24 01:15:13;;;;;;;6.13;3.75;;;16.30;79.00;;;;;;5037892;28;20088;-63
2023/09/24 01:17:39;;;;;;;5.93;3.50;;;16.30;79.00;;;;;;5020545;28;20422;-63
2023/09/24 01:20:06;;;;;;;9.30;4.30;;;16.30;79.00;;;;;;5038293;28;20025;-63
2023/09/24 01:22:32;;;;;;;5.45;3.70;;;16.30;79.00;;;;;;5038254;28;20104;-65
2023/09/24 01:25:00;;;;;;;8.23;3.35;;;16.30;79.00;;;;;;5037847;28;20128;-64
2023/09/24 01:27:26;;;;;;;7.63;4.72;;;16.30;79.20;;;;;;5038162;28;20164;-64
2023/09/24 01:29:56;;;;;;;7.93;3.83;;;16.30;79.00;;;;;;5037883;28;20036;-64
2023/09/24 01:32:22;;;;;;;6.22;3.42;;;16.30;79.10;;;;;;5037786;28;20073;-64
2023/09/24 01:34:48;;;;;;;6.50;2.88;;;16.30;79.00;;;;;;5037729;28;20025;-63
2023/09/24 01:37:15;;;;;;;6.50;3.20;;;16.20;79.00;;;;;;5037914;28;20028;-64
2023/09/24 01:39:41;;;;;;;5.80;3.47;;;16.30;79.10;;;;;;5037955;28;20122;-64
2023/09/24 01:42:07;;;;;;;6.50;3.42;;;16.30;79.30;;;;;;5037673;28;20363;-64
2023/09/24 01:44:33;;;;;;;5.13;3.20;;;16.30;79.10;;;;;;5037516;28;20458;-63
2023/09/24 01:46:59;;;;;;;3.67;2.80;;;16.30;79.20;;;;;;5037585;28;20017;-63
2023/09/24 01:49:25;;;;;;;6.78;4.15;;;16.30;79.10;;;;;;5038086;28;20029;-64
2023/09/24 01:51:51;;;;;;;4.97;3.63;;;16.30;79.00;;;;;;5037783;28;20092;-63
2023/09/24 01:54:17;;;;;;;5.53;3.40;;;16.30;79.00;;;;;;5037376;28;20470;-64
2023/09/24 01:56:43;;;;;;;6.93;3.58;;;16.30;78.90;;;;;;5037392;28;20115;-64
2023/09/24 01:59:09;;;;;;;7.78;3.28;;;16.30;79.00;;;;;;5037558;28;20060;-66
2023/09/24 02:01:35;;;;;;;5.13;3.33;;;16.30;79.10;;;;;;5037301;28;20443;-64
2023/09/24 02:04:03;;;;;;;6.78;3.17;;;16.30;79.00;;;;;;5037210;28;20035;-63
2023/09/24 02:06:30;;;;;;;5.25;3.17;;;16.40;79.10;;;;;;5036233;28;20100;-63
2023/09/24 02:08:56;;;;;;;6.03;2.90;;;16.40;78.90;;;;;;5037204;28;20459;-63
2023/09/24 02:11:22;;;;;;;5.07;2.80;;;16.40;78.90;;;;;;5037019;28;20402;-63
2023/09/24 02:13:48;;;;;;;5.75;2.80;;;16.40;78.90;;;;;;5037006;28;20029;-64
2023/09/24 02:16:14;;;;;;;3.55;2.42;;;16.40;78.90;;;;;;5036881;28;20057;-63
2023/09/24 02:18:41;;;;;;;3.78;2.80;;;16.40;79.00;;;;;;5036917;28;20033;-63
2023/09/24 02:21:14;;;;;;;6.38;2.85;;;16.40;79.00;;;;;;5037184;28;20021;-64
2023/09/24 02:23:44;;;;;;;3.55;2.80;;;16.40;79.00;;;;;;5036755;28;20033;-64
2023/09/24 02:26:13;;;;;;;5.47;2.72;;;16.40;79.00;;;;;;5037093;28;20026;-63
2023/09/24 02:28:40;;;;;;;5.05;2.80;;;16.40;79.00;;;;;;5036751;28;20324;-63
2023/09/24 02:31:06;;;;;;;5.97;3.05;;;16.40;79.00;;;;;;5036979;28;20394;-63
2023/09/24 02:33:34;;;;;;;3.67;2.47;;;16.40;79.10;;;;;;5037122;28;20400;-64
2023/09/24 02:36:00;;;;;;;4.63;2.88;;;16.40;78.90;;;;;;5036665;28;20018;-64
2023/09/24 02:38:26;;;;;;;3.28;2.72;;;16.40;79.10;;;;;;5036503;28;20043;-63
2023/09/24 02:40:57;;;;;;;4.30;2.22;;;16.40;78.90;;;;;;5036539;28;20018;-63
2023/09/24 02:43:23;;;;;;;3.05;2.10;;;16.40;78.70;;;;;;5036975;28;20022;-64
2023/09/24 02:45:49;;;;;;;3.03;2.13;;;16.40;78.70;;;;;;5036375;28;20025;-64
2023/09/24 02:48:18;;;;;;;3.22;1.88;;;16.40;78.60;;;;;;5036892;28;20033;-64
2023/09/24 02:50:44;;;;;;;2.88;2.20;;;16.40;78.60;;;;;;5036340;28;20071;-63
2023/09/24 02:53:11;;;;;;;3.08;2.20;;;16.40;78.50;;;;;;5036493;28;20033;-64
2023/09/24 02:55:37;;;;;;;3.08;2.20;;;16.40;78.50;;;;;;5036811;28;20124;-63
2023/09/24 02:58:05;;;;;;;2.88;2.08;;;16.40;78.50;;;;;;5018886;28;20079;-63
2023/09/24 03:00:36;;;;;;;4.00;2.05;;;16.40;78.40;;;;;;5036101;28;20479;-63
2023/09/24 03:03:04;;;;;;;2.63;1.95;;;16.40;78.40;;;;;;5036083;28;20029;-64
2023/09/24 03:05:31;;;;;;;2.90;1.85;;;16.40;78.30;;;;;;5036237;28;20049;-63
2023/09/24 03:08:00;;;;;;;2.35;1.70;;;16.40;78.20;;;;;;5035977;28;20041;-64
2023/09/24 03:10:26;;;;;;;3.40;1.60;;;16.40;77.90;;;;;;5036234;28;20025;-64
2023/09/24 03:12:54;;;;;;;1.52;1.42;;;16.40;77.80;;;;;;5018927;28;20025;-63
2023/09/24 03:15:20;;;;;;;2.42;1.70;;;16.40;77.80;;;;;;5035580;28;20045;-64
2023/09/24 03:17:46;;;;;;;3.78;2.00;;;16.40;77.90;;;;;;5035520;28;20112;-64
2023/09/24 03:20:16;;;;;;;3.33;2.10;;;16.40;77.90;;;;;;5036197;28;20148;-64
2023/09/24 03:22:48;;;;;;;2.60;1.90;;;16.40;78.00;;;;;;5036061;28;20025;-63
2023/09/24 03:25:17;;;;;;;3.08;1.77;;;16.50;78.10;;;;;;5018279;28;20075;-63
2023/09/24 03:27:44;;;;;;;3.72;2.10;;;16.40;78.10;;;;;;5036192;28;20095;-64
2023/09/24 03:30:14;;;;;;;2.53;1.67;;;16.40;78.10;;;;;;5035698;28;20361;-63
2023/09/24 03:32:43;;;;;;;3.10;1.95;;;16.40;78.20;;;;;;5035569;28;20036;-64
2023/09/24 03:35:11;;;;;;;4.32;2.00;;;16.40;78.20;;;;;;5035451;28;20431;-63
2023/09/24 03:37:40;;;;;;;3.45;2.13;;;16.40;78.30;;;;;;5035738;28;20041;-64
2023/09/24 03:40:12;;;;;;;2.40;1.75;;;16.30;78.30;;;;;;5035486;28;20447;-64
2023/09/24 03:42:39;;;;;;;4.30;2.45;;;16.30;78.40;;;;;;5035760;28;20041;-64
2023/09/24 03:45:11;;;;;;;4.60;2.58;;;16.30;78.40;;;;;;5017968;28;20174;-63
2023/09/24 03:47:38;;;;;;;3.20;2.20;;;16.30;78.40;;;;;;5035971;28;20033;-63
2023/09/24 03:50:15;;;;;;;4.90;2.70;;;16.20;78.40;;;;;;5035289;28;20029;-63
2023/09/24 03:52:41;;;;;;;3.47;2.25;;;16.20;78.40;;;;;;5035619;28;20025;-64
2023/09/24 03:55:08;;;;;;;5.20;2.53;;;16.20;78.50;;;;;;5035187;28;20082;-63
2023/09/24 03:57:35;;;;;;;3.63;2.30;;;16.10;78.50;;;;;;5035199;28;20383;-63
2023/09/24 04:00:02;;;;;;;4.30;2.47;;;16.10;78.60;;;;;;5035224;28;20021;-63
2023/09/24 04:02:28;;;;;;;4.50;2.75;;;16.00;78.60;;;;;;5035417;28;20025;-64
2023/09/24 04:04:55;;;;;;;4.18;2.35;;;16.00;78.70;;;;;;5035169;28;20020;-64
2023/09/24 04:07:21;;;;;;;4.07;2.90;;;15.90;78.80;;;;;;5035142;28;20032;-64
2023/09/24 04:09:50;;;;;;;3.90;2.88;;;15.90;78.90;;;;;;5035065;28;20031;-64
2023/09/24 04:12:16;;;;;;;4.47;2.80;;;15.90;78.90;;;;;;5035030;28;20025;-63
2023/09/24 04:14:42;;;;;;;7.22;3.90;;;15.80;79.00;;;;;;5034716;28;20049;-64
2023/09/24 04:17:09;;;;;;;3.88;2.65;;;15.80;79.10;;;;;;5035313;28;20124;-63
2023/09/24 04:19:35;;;;;;;3.85;2.67;;;15.70;79.10;;;;;;5034964;28;20363;-64
2023/09/24 04:22:01;;;;;;;3.47;2.10;;;15.60;79.20;;;;;;5034923;28;20060;-64
2023/09/24 04:24:27;;;;;;;3.78;2.30;;;15.60;79.30;;;;;;5035169;28;20049;-63
2023/09/24 04:26:54;;;;;;;6.32;2.63;;;15.50;79.30;;;;;;5034973;28;20100;-63
2023/09/24 04:29:20;;;;;;;2.60;2.35;;;15.50;79.40;;;;;;5037219;28;20088;-63
2023/09/24 04:31:46;;;;;;;3.45;2.55;;;15.40;79.40;;;;;;5038978;28;20029;-63
2023/09/24 04:34:13;;;;;;;4.90;2.90;;;15.40;79.40;;;;;;5039357;28;20034;-64
2023/09/24 04:36:40;;;;;;;3.80;2.50;;;15.40;79.50;;;;;;5021427;28;20022;-63
2023/09/24 04:39:10;;;;;;;4.63;2.53;;;15.40;79.50;;;;;;5038690;28;20029;-64
2023/09/24 04:41:42;;;;;;;3.65;2.63;;;15.30;79.50;;;;;;5038729;28;20025;-63
2023/09/24 04:44:08;;;;;;;5.40;2.97;;;15.20;79.40;;;;;;5038834;28;20117;-63
2023/09/24 04:46:35;;;;;;;5.15;2.70;;;15.10;79.60;;;;;;5038724;28;20014;-63
2023/09/24 04:49:05;;;;;;;3.92;2.33;;;15.10;79.80;;;;;;5038662;28;20398;-64
2023/09/24 04:51:34;;;;;;;4.05;2.70;;;15.00;79.80;;;;;;5038911;28;20402;-64
2023/09/24 04:54:01;;;;;;;4.88;3.10;;;15.00;79.90;;;;;;5038396;28;20025;-63
2023/09/24 04:56:30;;;;;;;6.20;3.60;;;14.90;80.00;;;;;;5038760;28;20037;-63
2023/09/24 04:58:57;;;;;;;3.90;2.30;;;14.90;80.40;;;;;;5038402;28;20463;-64
2023/09/24 05:01:23;;;;;;;8.25;3.90;;;14.90;80.20;;;;;;5038377;28;20057;-63
2023/09/24 05:03:50;;;;;;;4.55;2.70;;;14.80;80.30;;;;;;5038801;28;20025;-63
2023/09/24 05:06:18;;;;;;;3.47;2.58;;;14.80;80.40;;;;;;5021416;28;20331;-64
2023/09/24 05:08:45;;;;;;;7.10;2.35;;;14.70;80.40;;;;;;5038222;28;20029;-64
2023/09/24 05:11:11;;;;;;;4.32;2.70;;;14.70;80.50;;;;;;5038153;28;20115;-63
2023/09/24 05:13:37;;;;;;;4.45;2.78;;;14.70;80.50;;;;;;5038533;28;20017;-63
2023/09/24 05:16:04;;;;;;;4.20;2.90;;;14.70;80.40;;;;;;5037904;28;20071;-64
2023/09/24 05:18:32;;;;;;;3.83;2.78;;;14.70;80.50;;;;;;5038004;28;20017;-63
2023/09/24 05:20:58;;;;;;;6.10;2.90;;;14.70;80.50;;;;;;5038050;28;20041;-64
2023/09/24 05:23:24;;;;;;;3.92;3.00;;;14.70;80.50;;;;;;5020470;28;20110;-63
2023/09/24 05:25:53;;;;;;;4.18;2.60;;;14.70;80.50;;;;;;5037908;28;20105;-64
2023/09/24 05:28:19;;;;;;;9.43;3.90;;;14.70;80.50;;;;;;5021005;28;20455;-63
2023/09/24 05:30:57;;;;;;;5.40;3.05;;;14.80;80.50;;;;;;5038120;28;20352;-64
2023/09/24 05:33:23;;;;;;;6.78;3.00;;;14.80;80.40;;;;;;5037683;28;20029;-63
2023/09/24 05:35:51;;;;;;;4.32;2.85;;;14.80;80.40;;;;;;5038342;28;20025;-64
2023/09/24 05:38:16;;;;;;;5.07;2.90;;;14.80;80.40;;;;;;5037963;28;20112;-63
2023/09/24 05:40:43;;;;;;;5.10;3.28;;;14.90;80.30;;;;;;5037914;28;20418;-64
2023/09/24 05:43:09;;;;;;;5.07;2.88;;;15.00;80.40;;;;;;5037587;28;20013;-64
2023/09/24 05:45:35;;;;;;;5.93;3.05;;;15.20;80.20;;;;;;5037644;28;20018;-64
2023/09/24 05:48:01;;;;;;;5.53;3.63;;;15.30;80.10;;;;;;5038075;28;20095;-64
2023/09/24 05:50:29;;;;;;;4.53;2.55;;;15.40;80.00;;;;;;5037560;28;20514;-63
2023/09/24 05:52:54;;;;;;;4.53;2.70;;;15.50;79.60;;;;;;5037694;28;20048;-64
2023/09/24 05:55:20;;;;;;;3.10;2.40;;;15.60;79.30;;;;;;5037620;28;20021;-64
2023/09/24 05:57:46;;;;;;;3.17;2.30;;;15.80;79.10;;;;;;5037861;28;20506;-64
2023/09/24 06:00:13;;;;;;;3.38;2.15;;;16.60;79.50;;;;;;5037264;28;20030;-64
2023/09/24 06:02:40;;;;;;;1.45;1.23;;;18.40;78.10;;;;;;5037569;28;20036;-64
2023/09/24 06:05:09;;;;;;;1.92;1.35;;;20.40;74.10;;;;;;5037469;28;20032;-64
2023/09/24 06:07:35;;;;;;;1.30;0.88;;;22.40;69.70;;;;;;5037071;28;20403;-64
2023/09/24 06:10:04;;;;;;;1.95;0.90;;;24.20;65.40;;;;;;5037120;28;20056;-63
2023/09/24 06:12:31;;;;;;;2.15;0.82;;;25.80;61.50;;;;;;5037037;28;20029;-64
2023/09/24 06:14:58;;;;;;;0.90;0.82;;;27.20;58.20;;;;;;5036776;28;20069;-64
2023/09/24 06:17:24;;;;;;;1.35;0.75;;;28.40;55.40;;;;;;5037472;28;20022;-65
2023/09/24 06:19:51;;;;;;;0.80;0.77;;;29.60;52.70;;;;;;5036919;28;20031;-64
2023/09/24 06:22:17;;;;;;;2.50;0.90;;;30.60;50.60;;;;;;5037180;28;20033;-63
2023/09/24 06:24:44;;;;;;;1.25;0.90;;;31.50;48.70;;;;;;5037027;28;20030;-64
2023/09/24 06:27:09;;;;;;;1.98;0.80;;;32.40;46.70;;;;;;5037159;28;20025;-65
2023/09/24 06:29:36;;;;;;;1.63;0.90;;;33.10;45.10;;;;;;5037286;28;20174;-65
2023/09/24 06:32:02;;;;;;;0.70;0.60;;;33.90;43.70;;;;;;5036709;28;20025;-63
2023/09/24 06:34:28;;;;;;;2.05;0.70;;;34.40;42.00;;;;;;5036751;28;20021;-64
2023/09/24 06:36:54;;;;;;;1.63;0.93;;;35.10;41.30;;;;;;5036897;28;20021;-64
2023/09/24 06:39:20;;;;;;;0.95;0.55;;;35.70;39.70;;;;;;5036506;28;20052;-64
2023/09/24 06:41:46;;;;;;;0.82;0.75;;;36.10;38.30;;;;;;5036630;28;20155;-65
2023/09/24 06:44:13;;;;;;;1.58;0.80;;;36.40;37.20;;;;;;5036443;28;20447;-66
2023/09/24 06:46:39;;;;;;;1.20;1.00;;;36.80;36.70;;;;;;5036393;28;20033;-65
2023/09/24 06:49:05;;;;;;;1.65;0.77;;;37.20;36.10;;;;;;5034244;28;20029;-64
2023/09/24 06:51:31;;;;;;;1.20;0.65;;;37.50;35.50;;;;;;5035352;28;20036;-65
2023/09/24 06:53:57;;;;;;;0.68;0.68;;;37.90;35.10;;;;;;5034715;28;20070;-64
2023/09/24 06:56:23;;;;;;;1.48;1.05;;;38.40;34.70;;;;;;5035878;28;20084;-66
2023/09/24 06:58:48;;;;;;;1.20;0.90;;;38.70;33.90;;;;;;5036050;28;20036;-65
2023/09/24 07:01:14;;;;;;;1.17;0.80;;;39.00;33.80;;;;;;5035908;28;20470;-65
2023/09/24 07:03:40;;;;;;;1.40;1.20;;;39.20;33.50;;;;;;5035432;28;20033;-64
2023/09/24 07:06:06;;;;;;;1.20;1.10;;;39.40;32.50;;;;;;5035339;28;20021;-65
2023/09/24 07:08:35;;;;;;;2.60;1.10;;;39.40;32.80;;;;;;5035041;28;20037;-65
2023/09/24 07:11:20;;;;;;;1.33;1.23;;;39.50;32.90;;;;;;5034749;28;20506;-65
2023/09/24 07:13:46;;;;;;;1.33;1.05;;;39.80;32.60;;;;;;5034328;28;20033;-65
2023/09/24 07:16:12;;;;;;;2.63;1.20;;;40.00;32.20;;;;;;5035637;28;20519;-63
2023/09/24 07:18:38;;;;;;;4.97;1.30;;;40.20;31.90;;;;;;5018627;28;20366;-65
2023/09/24 07:21:05;;;;;;;2.88;1.38;;;40.40;31.60;;;;;;5035819;28;20017;-65
2023/09/24 07:23:31;;;;;;;1.83;1.20;;;40.50;31.30;;;;;;5035771;28;20025;-65
2023/09/24 07:25:57;;;;;;;2.03;1.52;;;40.50;31.30;;;;;;5036032;28;20029;-65
2023/09/24 07:28:25;;;;;;;5.57;1.67;;;40.60;31.20;;;;;;5035718;28;20040;-63
2023/09/24 07:30:54;;;;;;;3.50;1.60;;;40.70;31.10;;;;;;5035591;28;20455;-65
2023/09/24 07:33:21;;;;;;;3.67;1.58;;;40.80;31.00;;;;;;5035532;28;20034;-65
2023/09/24 07:35:48;;;;;;;2.05;1.48;;;40.70;31.10;;;;;;5035848;28;20104;-65
2023/09/24 07:38:14;;;;;;;3.00;1.75;;;40.60;31.20;;;;;;5035414;28;20045;-65
2023/09/24 07:40:40;;;;;;;2.05;1.50;;;40.50;31.10;;;;;;5035562;28;20109;-65
2023/09/24 07:43:09;;;;;;;1.92;1.35;;;40.50;31.00;;;;;;5035515;28;20029;-65
2023/09/24 07:45:36;;;;;;;3.03;1.45;;;40.30;31.00;;;;;;5035467;28;20032;-65
2023/09/24 07:48:13;;;;;;;2.00;1.63;;;40.20;31.10;;;;;;5017981;28;20033;-65
2023/09/24 07:50:41;;;;;;;3.92;1.73;;;40.00;31.20;;;;;;5035684;28;20030;-65
2023/09/24 07:53:13;;;;;;;3.35;1.48;;;39.90;31.30;;;;;;5035263;28;20474;-65
2023/09/24 07:55:39;;;;;;;3.13;1.80;;;39.70;31.00;;;;;;5035594;28;20044;-65
2023/09/24 07:58:06;;;;;;;3.30;1.88;;;39.40;31.30;;;;;;5035708;28;20034;-62
2023/09/24 08:00:35;;;;;;;2.95;2.03;;;39.00;31.50;;;;;;5035281;28;20022;-63
2023/09/24 08:03:01;;;;;;;3.70;2.08;;;38.90;31.60;;;;;;5035159;28;20394;-64
2023/09/24 08:05:28;;;;;;;3.70;2.30;;;38.80;31.50;;;;;;5035397;28;20036;-60
2023/09/24 08:07:54;;;;;;;4.43;2.42;;;38.60;31.30;;;;;;5035100;28;20116;-61
2023/09/24 08:10:20;;;;;;;2.47;2.08;;;38.30;31.10;;;;;;5035558;28;20035;-60
2023/09/24 08:12:46;;;;;;;2.60;2.28;;;38.00;30.70;;;;;;5035614;28;20029;-60
2023/09/24 08:15:13;;;;;;;3.78;2.00;;;37.70;30.60;;;;;;5034706;28;20046;-61
2023/09/24 08:17:56;;;;;;;3.33;1.90;;;37.40;30.80;;;;;;5035378;28;20104;-61
2023/09/24 08:20:23;;;;;;;3.85;2.25;;;36.80;30.40;;;;;;5017472;28;20029;-61
2023/09/24 08:22:50;;;;;;;2.95;1.83;;;36.00;31.80;;;;;;5035393;28;20026;-58
2023/09/24 08:25:16;;;;;;;2.72;1.90;;;34.90;32.80;;;;;;5035094;28;20104;-61
2023/09/24 08:27:42;;;;;;;2.17;1.63;;;33.90;34.00;;;;;;5035163;28;20052;-59
2023/09/24 08:30:09;;;;;;;2.25;1.60;;;32.90;35.10;;;;;;5035371;28;20037;-61
2023/09/24 08:32:36;;;;;;;3.63;1.92;;;32.20;36.20;;;;;;5036031;28;20057;-61
2023/09/24 08:35:03;;;;;;;3.92;2.00;;;31.50;37.10;;;;;;5035568;28;20022;-60
2023/09/24 08:37:29;;;;;;;1.77;1.52;;;31.00;37.90;;;;;;5034765;28;20112;-60
2023/09/24 08:39:55;;;;;;;3.00;1.52;;;30.60;38.60;;;;;;5035323;28;20048;-62
2023/09/24 08:42:22;;;;;;;2.03;1.48;;;30.20;38.90;;;;;;5035024;28;20075;-61
2023/09/24 08:45:12;;;;;;;2.50;1.42;;;29.90;39.20;;;;;;5035416;28;20052;-60
2023/09/24 08:47:47;;;;;;;2.78;1.45;;;29.50;39.10;;;;;;5035037;28;20029;-60
2023/09/24 08:50:14;;;;;;;2.22;1.52;;;29.20;40.20;;;;;;5034764;28;20092;-59
2023/09/24 08:52:45;;;;;;;5.45;2.50;;;29.10;40.90;;;;;;5034709;28;20328;-59
2023/09/24 08:55:14;;;;;;;3.90;1.48;;;28.90;41.10;;;;;;5034713;28;20051;-61
2023/09/24 08:57:47;;;;;;;1.50;1.20;;;28.80;40.90;;;;;;5035180;28;20336;-61
2023/09/24 09:00:23;;;;;;;1.70;1.52;;;28.60;41.10;;;;;;5017266;28;20474;-59
2023/09/24 09:02:55;;;;;;;2.33;1.50;;;28.60;40.90;;;;;;5017232;28;20116;-61
2023/09/24 09:05:26;;;;;;;2.08;1.17;;;28.50;40.50;;;;;;5035156;28;20018;-61
2023/09/24 09:08:01;;;;;;;1.45;0.93;;;28.40;40.90;;;;;;5035133;28;20029;-60
2023/09/24 09:10:39;;;;;;;1.65;1.15;;;28.30;40.90;;;;;;5034679;28;20021;-61
2023/09/24 09:13:13;;;;;;;2.20;1.50;;;28.20;41.10;;;;;;5034928;28;20443;-60
2023/09/24 09:16:08;;;;;;;1.67;1.20;;;28.30;41.20;;;;;;5036255;28;20049;-60
2023/09/24 09:18:40;;;;;;;2.55;0.90;;;28.20;40.90;;;;;;5037909;28;20040;-61
2023/09/24 09:21:07;;;;;;;0.82;0.70;;;28.20;41.00;;;;;;5038103;28;20347;-60
2023/09/24 09:23:42;;;;;;;1.65;0.75;;;28.20;41.00;;;;;;5038467;28;20018;-60
2023/09/24 09:26:08;;;;;;;1.08;0.85;;;28.10;40.00;;;;;;5038194;28;20026;-60
2023/09/24 09:28:39;;;;;;;1.33;0.82;;;28.10;40.80;;;;;;5038459;28;20347;-62
2023/09/24 09:31:10;;;;;;;2.67;1.65;;;28.10;39.90;;;;;;5037915;28;20022;-62
2023/09/24 09:33:44;;;;;;;2.45;1.30;;;28.10;40.70;;;;;;5037751;28;20029;-60
2023/09/24 09:36:24;;;;;;;1.35;0.90;;;28.10;40.70;;;;;;5038053;28;20492;-60
2023/09/24 09:38:54;;;;;;;2.22;1.20;;;28.00;40.20;;;;;;5038166;28;20116;-60
2023/09/24 09:41:33;;;;;;;1.40;1.00;;;28.00;40.90;;;;;;5037562;28;20454;-59
2023/09/24 09:44:07;;;;;;;0.80;0.80;;;27.90;40.40;;;;;;5035355;28;20021;-60
2023/09/24 09:46:48;;;;;;;1.38;1.10;;;27.90;41.00;;;;;;5037744;28;20033;-59
2023/09/24 09:49:20;;;;;;;1.55;0.82;;;27.90;40.80;;;;;;5037543;28;20029;-61
2023/09/24 09:51:48;;;;;;;1.02;0.85;;;27.90;40.90;;;;;;5034041;28;20017;-60
2023/09/24 09:54:16;;;;;;;1.85;0.85;;;27.90;40.40;;;;;;5035122;28;20505;-58
2023/09/24 09:56:42;;;;;;;1.40;1.10;;;27.80;40.50;;;;;;5018432;28;20044;-60
2023/09/24 09:59:09;;;;;;;2.13;0.80;;;27.80;40.60;;;;;;5017610;28;20065;-60
2023/09/24 10:01:36;;;;;;;1.00;0.88;;;27.80;40.70;;;;;;5002178;28;20489;-59
2023/09/24 10:04:05;;;;;;;1.38;0.80;;;27.90;41.00;;;;;;5035979;28;20029;-60
2023/09/24 10:06:34;;;;;;;1.75;1.15;;;27.90;41.00;;;;;;5036007;28;20554;-60
2023/09/24 10:09:01;;;;;;;2.22;1.30;;;27.90;41.00;;;;;;5036027;28;20043;-60
2023/09/24 10:11:31;;;;;;;2.35;1.25;;;27.90;40.70;;;;;;5037054;28;20140;-60
2023/09/24 10:13:58;;;;;;;1.30;1.05;;;27.90;40.20;;;;;;5037015;28;20439;-60
2023/09/24 10:16:30;;;;;;;1.33;0.80;;;27.90;40.30;;;;;;5036782;28;20124;-59
2023/09/24 10:19:05;;;;;;;0.80;0.80;;;27.90;40.20;;;;;;5037069;28;20060;-60
2023/09/24 10:21:33;;;;;;;1.58;0.95;;;28.00;39.60;;;;;;5036923;28;20018;-61
2023/09/24 10:24:09;;;;;;;1.30;0.68;;;28.00;38.60;;;;;;5036682;28;20100;-59
2023/09/24 10:27:05;;;;;;;2.50;1.40;;;28.00;39.70;;;;;;5018339;28;20116;-59
2023/09/24 10:29:49;;;;;;;2.72;1.50;;;28.00;37.10;;;;;;5019356;28;20124;-59
2023/09/24 10:32:21;;;;;;;1.67;1.00;;;28.00;39.30;;;;;;5036492;28;20073;-60
2023/09/24 10:37:24;;;;;;;1.90;1.08;;;28.00;39.40;;;;;;5035690;28;20026;-60
2023/09/24 10:40:05;;;;;;;2.65;1.20;;;28.00;40.10;;;;;;5034410;28;20083;-60
2023/09/24 10:42:37;;;;;;;1.95;0.90;;;27.90;39.80;;;;;;5034754;28;20033;-60
2023/09/24 10:45:06;;;;;;;8.00;2.60;;;27.90;40.00;;;;;;5017186;28;20029;-61
2023/09/24 10:47:38;;;;;;;5.32;2.38;;;27.90;39.80;;;;;;5034300;28;20105;-60
2023/09/24 10:50:30;;;;;;;4.60;1.90;;;27.90;39.80;;;;;;5034518;28;20448;-61
2023/09/24 10:52:59;;;;;;;2.35;1.52;;;27.80;39.90;;;;;;5016911;28;20179;-59
2023/09/24 10:55:31;;;;;;;2.20;1.30;;;27.80;39.90;;;;;;5019455;28;20119;-60
2023/09/24 10:57:58;;;;;;;4.47;1.08;;;27.80;39.30;;;;;;5036110;28;20451;-59
2023/09/24 11:00:25;;;;;;;2.25;0.80;;;27.60;39.00;;;;;;5036191;28;20029;-61
2023/09/24 11:03:00;;;;;;;1.10;0.75;;;27.50;39.00;;;;;;5018591;28;20032;-62
2023/09/24 11:05:27;;;;;;;2.70;0.80;;;27.40;39.00;;;;;;5036529;28;20436;-61
2023/09/24 11:07:55;;;;;;;0.82;0.80;;;27.40;39.20;;;;;;5035935;28;20099;-62
2023/09/24 11:10:25;;;;;;;1.17;0.63;;;27.40;38.90;;;;;;5035828;28;20029;-62
2023/09/24 11:13:01;;;;;;;0.95;0.68;;;27.30;38.70;;;;;;5036044;28;20017;-61
2023/09/24 11:15:37;;;;;;;0.60;0.60;;;27.30;39.10;;;;;;5015250;28;20463;-62
2023/09/24 11:18:04;;;;;;;1.23;0.63;;;27.30;38.30;;;;;;5016089;28;20037;-60
2023/09/24 11:20:32;;;;;;;1.33;0.57;;;27.30;38.80;;;;;;5016591;28;20030;-60
2023/09/24 11:23:10;;;;;;;0.85;0.65;;;27.30;38.90;;;;;;5016030;28;20026;-62
2023/09/24 11:25:38;;;;;;;0.95;0.50;;;27.30;38.80;;;;;;5016810;28;20030;-60
2023/09/24 11:28:05;;;;;;;1.23;0.77;;;27.30;39.00;;;;;;5016387;28;20041;-60
2023/09/24 11:30:49;;;;;;;1.17;0.93;;;27.30;38.60;;;;;;5015853;28;20037;-61
2023/09/24 11:33:21;;;;;;;1.13;0.90;;;27.20;38.60;;;;;;5016121;28;20064;-60
2023/09/24 11:35:55;;;;;;;1.27;0.82;;;27.20;39.00;;;;;;5015657;28;20333;-60
2023/09/24 11:38:40;;;;;;;1.02;0.93;;;27.20;39.20;;;;;;5015954;28;20022;-60
2023/09/24 11:41:24;;;;;;;1.10;0.70;;;27.20;39.10;;;;;;5015661;28;20089;-60
2023/09/24 11:43:57;;;;;;;1.58;0.93;;;27.20;39.10;;;;;;5015481;28;20448;-61
2023/09/24 11:46:32;;;;;;;0.82;0.75;;;27.30;38.20;;;;;;5016145;28;20344;-60
2023/09/24 11:49:00;;;;;;;2.58;0.90;;;27.20;38.80;;;;;;5015569;28;20033;-60
2023/09/24 11:51:33;;;;;;;1.65;1.27;;;27.20;38.30;;;;;;5015419;28;20041;-60
2023/09/24 11:54:11;;;;;;;1.73;1.00;;;27.10;38.10;;;;;;5015792;28;20360;-62
2023/09/24 11:56:44;;;;;;;0.98;0.88;;;27.00;38.40;;;;;;5015345;28;20093;-61
2023/09/24 11:59:15;;;;;;;1.75;0.82;;;27.00;38.70;;;;;;5015742;28;20037;-61
2023/09/24 12:01:41;;;;;;;1.63;1.08;;;27.00;38.20;;;;;;5015588;28;20030;-61
2023/09/24 12:04:07;;;;;;;1.30;0.70;;;26.90;38.50;;;;;;5015814;28;20033;-61
2023/09/24 12:06:35;;;;;;;2.30;1.00;;;26.90;38.80;;;;;;5015383;28;20424;-61
2023/09/24 12:09:01;;;;;;;1.17;0.60;;;26.90;38.50;;;;;;5015282;28;20022;-60
2023/09/24 12:11:28;;;;;;;1.27;0.90;;;26.90;38.50;;;;;;5014212;28;20026;-61
2023/09/24 12:14:00;;;;;;;1.67;0.88;;;26.90;38.30;;;;;;5015180;28;20329;-60
2023/09/24 12:16:29;;;;;;;1.10;0.90;;;26.90;38.30;;;;;;5015021;28;20053;-62
2023/09/24 12:18:59;;;;;;;1.38;0.73;;;26.90;38.40;;;;;;5015093;28;20045;-61
2023/09/24 12:21:26;;;;;;;0.80;0.57;;;26.90;38.60;;;;;;5015063;28;20029;-62
2023/09/24 12:23:53;;;;;;;0.85;0.73;;;26.90;38.70;;;;;;5015275;28;20018;-60
2023/09/24 12:26:21;;;;;;;1.23;0.77;;;26.90;38.70;;;;;;5015115;28;20471;-60
2023/09/24 12:28:48;;;;;;;1.63;0.85;;;26.90;38.80;;;;;;5015005;28;20448;-61
2023/09/24 12:31:15;;;;;;;1.65;0.80;;;26.90;38.80;;;;;;5015095;28;20026;-61
2023/09/24 12:33:41;;;;;;;1.90;0.77;;;26.90;38.60;;;;;;5015296;28;20026;-61
2023/09/24 12:36:08;;;;;;;0.95;0.70;;;26.90;38.60;;;;;;5015078;28;20051;-61
2023/09/24 12:38:34;;;;;;;0.73;0.68;;;26.90;38.70;;;;;;5015545;28;20425;-60
2023/09/24 12:41:00;;;;;;;0.70;0.63;;;27.00;38.50;;;;;;5015016;28;20478;-61
2023/09/24 12:43:27;;;;;;;1.27;0.60;;;27.00;38.20;;;;;;5014927;28;20072;-61
2023/09/24 12:45:54;;;;;;;1.10;0.90;;;27.00;38.60;;;;;;5015551;28;20081;-60
2023/09/24 12:48:24;;;;;;;0.70;0.57;;;27.10;38.30;;;;;;5015184;28;20033;-60
2023/09/24 12:50:50;;;;;;;1.02;0.85;;;27.10;38.20;;;;;;5018276;28;20109;-61
2023/09/24 12:53:17;;;;;;;0.82;0.63;;;27.20;36.70;;;;;;5018872;28;20416;-61
2023/09/24 12:55:45;;;;;;;1.48;0.80;;;27.20;37.80;;;;;;5019205;28;20442;-61
2023/09/24 12:58:11;;;;;;;1.10;0.63;;;27.30;37.60;;;;;;5018807;28;20041;-60